createdAt,value
2019-04-06T00:00:25.933Z,1
2019-04-06T00:01:25.945Z,1
2019-04-06T00:02:26.012Z,1
2019-04-06T00:03:25.901Z,1
2019-04-06T00:04:25.888Z,1
2019-04-06T00:06:25.951Z,1
2019-04-06T00:08:25.950Z,1
2019-04-06T00:09:25.833Z,1
2019-04-06T00:10:25.848Z,1
2019-04-06T00:21:25.716Z,1
2019-04-06T00:23:25.683Z,1
2019-04-06T00:36:25.543Z,7.
2019-04-06T00:37:25.556Z,4.
2019-04-06T00:38:25.543Z,5.
2019-04-06T00:39:25.541Z,8.
2019-04-06T00:40:25.622Z,4.
2019-04-06T00:41:25.508Z,5.
2019-04-06T00:42:25.474Z,4.
2019-04-06T00:43:25.466Z,3.
2019-04-06T00:44:25.506Z,5.
2019-04-06T00:45:25.758Z,4.
2019-04-06T00:46:25.393Z,5.
2019-04-06T00:47:25.379Z,5.
2019-04-06T00:48:25.371Z,5.
2019-04-06T00:49:25.357Z,5.
2019-04-06T00:50:25.345Z,4.
2019-04-06T00:51:25.434Z,5.
2019-04-06T00:52:25.333Z,3.
2019-04-06T00:53:25.317Z,5.
2019-04-06T00:54:25.302Z,4.
2019-04-06T00:55:25.295Z,5.
2019-04-06T00:56:25.384Z,5.00
2019-04-06T00:57:25.274Z,5.00
2019-04-06T00:58:25.265Z,4.00
2019-04-06T00:59:25.254Z,5.00
2019-04-06T01:00:25.244Z,3.90
2019-04-06T01:01:25.385Z,4.19
2019-04-06T01:02:25.218Z,4.90
2019-04-06T01:03:25.207Z,4.80
2019-04-06T01:04:25.205Z,4.59
2019-04-06T01:05:25.191Z,3.90
2019-04-06T01:06:25.274Z,4.50
2019-04-06T01:07:25.171Z,4.40
2019-04-06T01:08:25.153Z,5.30
2019-04-06T01:09:25.140Z,3.90
2019-04-06T01:10:25.131Z,3.50
2019-04-06T01:11:25.119Z,4.50
2019-04-06T01:12:25.215Z,5.30
2019-04-06T01:13:25.099Z,4.90
2019-04-06T01:14:25.091Z,4.80
2019-04-06T01:15:25.077Z,4.19
2019-04-06T01:16:25.068Z,4.80
2019-04-06T01:17:25.062Z,4.30
2019-04-06T01:18:25.250Z,3.70
2019-04-06T01:19:25.062Z,4.80
2019-04-06T01:20:25.022Z,4.19
2019-04-06T01:21:25.011Z,3.29
2019-04-06T01:22:25.045Z,4.59
2019-04-06T01:23:24.995Z,5.19
2019-04-06T01:24:25.079Z,5.90
2019-04-06T01:25:24.974Z,4.80
2019-04-06T01:26:24.963Z,3.90
2019-04-06T01:27:24.947Z,4.59
2019-04-06T01:28:24.938Z,5.80
2019-04-06T01:29:25.027Z,5.59
2019-04-06T01:30:24.919Z,5.80
2019-04-06T01:31:24.908Z,4.80
2019-04-06T01:32:24.908Z,5.59
2019-04-06T01:33:24.893Z,6.30
2019-04-06T01:34:24.877Z,6.00
2019-04-06T01:35:25.017Z,6.00
2019-04-06T01:36:24.849Z,6.19
2019-04-06T01:37:24.848Z,7.50
2019-04-06T01:38:24.837Z,6.59
2019-04-06T01:39:24.827Z,6.50
2019-04-06T01:40:24.808Z,7.69
2019-04-06T01:41:24.985Z,6.19
2019-04-06T01:42:24.822Z,6.40
2019-04-06T01:43:24.774Z,8.00
2019-04-06T01:44:24.764Z,6.59
2019-04-06T01:45:24.756Z,6.90
2019-04-06T01:46:24.741Z,5.90
2019-04-06T01:47:24.845Z,7.09
2019-04-06T01:48:24.722Z,7.09
2019-04-06T01:49:24.722Z,7.90
2019-04-06T01:50:24.698Z,8.39
2019-04-06T01:51:24.693Z,8.30
2019-04-06T01:52:24.680Z,8.80
2019-04-06T01:53:24.823Z,7.30
2019-04-06T01:54:24.711Z,6.30
2019-04-06T01:55:24.645Z,7.80
2019-04-06T01:56:24.645Z,7.30
2019-04-06T01:57:24.624Z,5.59
2019-04-06T01:58:24.615Z,6.00
2019-04-06T01:59:24.715Z,6.90
2019-04-06T02:00:24.601Z,7.19
2019-04-06T02:01:24.580Z,6.80
2019-04-06T02:02:24.574Z,6.90
2019-04-06T02:03:24.571Z,7.40
2019-04-06T02:04:24.555Z,7.19
2019-04-06T02:05:24.639Z,7.90
2019-04-06T02:06:24.531Z,6.90
2019-04-06T02:07:24.519Z,6.80
2019-04-06T02:08:24.510Z,6.69
2019-04-06T02:09:24.494Z,7.30
2019-04-06T02:10:24.486Z,6.90
2019-04-06T02:11:24.574Z,6.40
2019-04-06T02:12:24.464Z,5.30
2019-04-06T02:13:24.455Z,6.80
2019-04-06T02:14:24.446Z,7.00
2019-04-06T02:15:24.429Z,7.30
2019-04-06T02:16:24.471Z,6.90
2019-04-06T02:17:24.512Z,7.59
2019-04-06T02:18:24.399Z,8.00
2019-04-06T02:19:24.387Z,8.10
2019-04-06T02:20:24.382Z,7.69
2019-04-06T02:21:24.509Z,8.39
2019-04-06T02:22:24.358Z,8.00
2019-04-06T02:23:24.447Z,8.69
2019-04-06T02:24:24.338Z,9.50
2019-04-06T02:25:24.326Z,9.19
2019-04-06T02:26:30.205Z,9.10
2019-04-06T02:27:49.202Z,5.59
2019-04-06T02:28:49.221Z,5.90
2019-04-06T02:29:49.107Z,6.40
2019-04-06T02:30:49.092Z,5.09
2019-04-06T02:31:49.083Z,5.59
2019-04-06T02:32:49.071Z,6.09
2019-04-06T02:33:49.462Z,6.30
2019-04-06T02:34:49.048Z,5.59
2019-04-06T02:35:49.041Z,6.00
2019-04-06T02:36:49.146Z,6.40
2019-04-06T02:37:49.018Z,6.30
2019-04-06T02:38:49.016Z,5.90
2019-04-06T02:39:49.115Z,5.90
2019-04-06T02:40:48.981Z,6.30
2019-04-06T02:41:48.978Z,6.19
2019-04-06T02:42:48.969Z,5.40
2019-04-06T02:43:48.962Z,4.90
2019-04-06T02:44:48.947Z,5.30
2019-04-06T02:45:49.038Z,5.90
2019-04-06T02:46:48.924Z,5.90
2019-04-06T02:47:48.922Z,5.59
2019-04-06T02:48:48.911Z,6.19
2019-04-06T02:49:48.983Z,4.59
2019-04-06T02:50:48.884Z,4.40
2019-04-06T02:51:49.022Z,4.69
2019-04-06T02:52:48.907Z,5.00
2019-04-06T02:53:48.852Z,4.40
2019-04-06T02:54:48.844Z,4.69
2019-04-06T02:55:48.828Z,5.00
2019-04-06T02:56:48.874Z,4.90
2019-04-06T02:57:48.815Z,4.30
2019-04-06T02:58:48.803Z,4.30
2019-04-06T02:59:48.808Z,4.59
2019-04-06T03:00:48.811Z,4.80
2019-04-06T03:01:48.772Z,4.80
2019-04-06T03:02:48.876Z,4.80
2019-04-06T03:03:48.855Z,4.80
2019-04-06T03:04:48.940Z,4.90
2019-04-06T03:05:48.742Z,5.09
2019-04-06T03:06:48.720Z,4.90
2019-04-06T03:07:48.729Z,4.50
2019-04-06T03:08:49.095Z,5.09
2019-04-06T03:09:48.785Z,4.90
2019-04-06T03:10:48.683Z,4.90
2019-04-06T03:11:48.675Z,5.30
2019-04-06T03:12:48.651Z,5.30
2019-04-06T03:13:48.641Z,5.09
2019-04-06T03:14:48.687Z,4.80
2019-04-06T03:15:48.636Z,4.80
2019-04-06T03:16:48.611Z,4.90
2019-04-06T03:17:48.600Z,4.90
2019-04-06T03:18:48.593Z,4.80
2019-04-06T03:19:48.624Z,5.09
2019-04-06T03:20:48.571Z,4.90
2019-04-06T03:21:48.822Z,4.40
2019-04-06T03:22:48.556Z,4.69
2019-04-06T03:23:51.265Z,4.50
2019-04-06T03:24:48.643Z,4.50
2019-04-06T03:25:48.515Z,4.19
2019-04-06T03:26:59.944Z,4.40
2019-04-06T03:27:49.698Z,4.69
2019-04-06T03:28:48.484Z,4.50
2019-04-06T03:29:57.501Z,4.80
2019-04-06T03:30:50.157Z,5.69
2019-04-06T03:31:48.475Z,4.90
2019-04-06T03:32:48.440Z,4.90
2019-04-06T03:33:48.642Z,4.90
2019-04-06T03:34:48.418Z,4.80
2019-04-06T03:35:49.998Z,5.30
2019-04-06T03:36:48.462Z,4.90
2019-04-06T03:37:48.388Z,4.50
2019-04-06T03:38:48.382Z,4.59
2019-04-06T03:39:48.374Z,4.90
2019-04-06T03:40:48.356Z,5.00
2019-04-06T03:41:48.493Z,4.59
2019-04-06T03:42:48.382Z,5.30
2019-04-06T03:43:48.321Z,5.30
2019-04-06T03:44:48.317Z,5.40
2019-04-06T03:45:48.308Z,5.09
2019-04-06T03:46:48.294Z,4.80
2019-04-06T03:47:48.391Z,5.30
2019-04-06T03:48:48.270Z,5.30
2019-04-06T03:49:48.407Z,5.30
2019-04-06T03:50:48.253Z,5.19
2019-04-06T03:51:48.239Z,5.19
2019-04-06T03:52:48.294Z,5.40
2019-04-06T03:53:48.274Z,5.59
2019-04-06T03:54:48.311Z,5.59
2019-04-06T03:55:48.198Z,6.09
2019-04-06T03:56:48.182Z,5.59
2019-04-06T03:57:48.176Z,6.40
2019-04-06T03:58:48.166Z,6.19
2019-04-06T03:59:48.210Z,6.69
2019-04-06T04:00:48.314Z,7.30
2019-04-06T04:01:48.136Z,8.30
2019-04-06T04:02:48.316Z,7.69
2019-04-06T04:03:48.118Z,7.09
2019-04-06T04:04:48.555Z,7.30
2019-04-06T04:05:48.183Z,7.40
2019-04-06T04:06:48.083Z,7.59
2019-04-06T04:07:48.074Z,7.90
2019-04-06T04:08:48.059Z,7.30
2019-04-06T04:09:48.050Z,8.60
2019-04-06T04:10:48.206Z,8.89
2019-04-06T04:11:48.026Z,8.60
2019-04-06T04:12:48.023Z,8.60
2019-04-06T04:13:48.008Z,9.19
2019-04-06T04:14:48.000Z,8.69
2019-04-06T04:15:47.987Z,9.19
2019-04-06T04:16:48.031Z,9.10
2019-04-06T04:17:48.094Z,9.19
2019-04-06T04:18:47.959Z,9.60
2019-04-06T04:19:47.942Z,8.80
2019-04-06T04:20:47.929Z,9.50
2019-04-06T04:21:47.924Z,9.30
2019-04-06T04:22:48.063Z,9.39
2019-04-06T04:23:47.907Z,9.10
2019-04-06T04:24:47.895Z,9.00
2019-04-06T04:25:47.880Z,9.30
2019-04-06T04:26:47.874Z,10.00
2019-04-06T04:27:47.862Z,9.60
2019-04-06T04:28:47.953Z,9.89
2019-04-06T04:29:47.877Z,10.30
2019-04-06T04:30:47.831Z,10.00
2019-04-06T04:31:47.912Z,9.39
2019-04-06T04:32:47.812Z,9.50
2019-04-06T04:33:47.940Z,9.80
2019-04-06T04:34:47.840Z,10.10
2019-04-06T04:35:47.796Z,10.00
2019-04-06T04:36:47.774Z,9.19
2019-04-06T04:37:47.751Z,8.69
2019-04-06T04:38:47.743Z,8.30
2019-04-06T04:39:48.025Z,9.50
2019-04-06T04:40:47.876Z,9.69
2019-04-06T04:41:47.714Z,10.39
2019-04-06T04:42:47.860Z,10.00
2019-04-06T04:43:47.693Z,9.69
2019-04-06T04:44:47.684Z,9.89
2019-04-06T04:45:47.667Z,10.89
2019-04-06T04:46:47.757Z,13.50
2019-04-06T04:47:49.995Z,14.30
2019-04-06T04:48:47.640Z,13.30
2019-04-06T04:49:47.628Z,13.00
2019-04-06T04:50:47.856Z,13.80
2019-04-06T04:51:47.711Z,12.60
2019-04-06T04:52:47.698Z,13.30
2019-04-06T04:53:47.587Z,12.00
2019-04-06T04:54:47.582Z,13.69
2019-04-06T04:55:47.775Z,15.00
2019-04-06T04:56:47.564Z,13.80
2019-04-06T04:57:47.547Z,14.10
2019-04-06T04:58:47.780Z,13.30
2019-04-06T04:59:47.527Z,14.30
2019-04-06T05:00:47.524Z,13.10
2019-04-06T05:01:47.514Z,12.50
2019-04-06T05:02:47.496Z,12.69
2019-04-06T05:03:47.671Z,12.69
2019-04-06T05:04:47.577Z,12.50
2019-04-06T05:05:47.462Z,12.60
2019-04-06T05:06:47.523Z,13.69
2019-04-06T05:07:47.444Z,12.69
2019-04-06T05:08:47.436Z,12.39
2019-04-06T05:09:47.424Z,13.00
2019-04-06T05:10:47.541Z,12.69
2019-04-06T05:11:49.017Z,12.00
2019-04-06T05:12:47.398Z,12.19
2019-04-06T05:13:47.387Z,12.89
2019-04-06T05:14:47.373Z,12.30
2019-04-06T05:15:47.360Z,11.69
2019-04-06T05:16:47.517Z,11.19
2019-04-06T05:17:47.343Z,11.39
2019-04-06T05:18:47.335Z,11.30
2019-04-06T05:19:47.328Z,11.50
2019-04-06T05:20:47.317Z,10.60
2019-04-06T05:21:47.326Z,9.60
2019-04-06T05:22:47.346Z,9.69
2019-04-06T05:23:47.286Z,10.89
2019-04-06T05:24:47.271Z,10.89
2019-04-06T05:25:47.430Z,10.89
2019-04-06T05:26:47.255Z,9.89
2019-04-06T05:27:52.398Z,9.80
2019-04-06T05:28:47.277Z,10.19
2019-04-06T05:29:47.223Z,9.89
2019-04-06T05:30:47.211Z,9.39
2019-04-06T05:31:47.202Z,9.50
2019-04-06T05:32:47.217Z,8.80
2019-04-06T05:33:47.179Z,10.19
2019-04-06T05:34:47.317Z,9.60
2019-04-06T05:35:47.194Z,9.30
2019-04-06T05:36:47.146Z,9.60
2019-04-06T05:37:47.138Z,10.00
2019-04-06T05:38:47.123Z,9.80
2019-04-06T05:39:47.113Z,9.69
2019-04-06T05:40:47.206Z,10.30
2019-04-06T05:41:47.096Z,10.50
2019-04-06T05:42:47.084Z,10.69
2019-04-06T05:43:47.073Z,10.50
2019-04-06T05:44:47.063Z,10.80
2019-04-06T05:45:47.076Z,10.80
2019-04-06T05:46:47.093Z,11.10
2019-04-06T05:47:47.034Z,11.60
2019-04-06T05:48:47.019Z,11.19
2019-04-06T05:49:47.009Z,11.30
2019-04-06T05:50:47.005Z,11.39
2019-04-06T05:51:46.988Z,11.19
2019-04-06T05:52:47.226Z,10.60
2019-04-06T05:53:46.966Z,10.89
2019-04-06T05:54:46.964Z,10.89
2019-04-06T05:55:46.939Z,10.10
2019-04-06T05:56:46.936Z,10.60
2019-04-06T05:57:46.924Z,9.80
2019-04-06T05:58:47.014Z,10.19
2019-04-06T05:59:46.978Z,10.19
2019-04-06T06:00:46.896Z,10.39
2019-04-06T06:01:48.452Z,9.39
2019-04-06T06:02:46.871Z,9.89
2019-04-06T06:03:46.970Z,9.30
2019-04-06T06:04:46.856Z,9.00
2019-04-06T06:05:46.840Z,8.30
2019-04-06T06:06:47.027Z,8.60
2019-04-06T06:07:46.909Z,8.00
2019-04-06T06:08:46.808Z,7.90
2019-04-06T06:09:46.855Z,8.10
2019-04-06T06:10:46.787Z,8.19
2019-04-06T06:11:46.779Z,8.60
2019-04-06T06:12:46.765Z,9.19
2019-04-06T06:13:46.765Z,8.80
2019-04-06T06:14:46.739Z,8.80
2019-04-06T06:15:46.831Z,8.89
2019-04-06T06:16:46.794Z,8.10
2019-04-06T06:17:46.729Z,7.90
2019-04-06T06:18:46.702Z,8.19
2019-04-06T06:19:46.693Z,8.69
2019-04-06T06:20:48.369Z,8.00
2019-04-06T06:21:46.671Z,8.39
2019-04-06T06:22:46.792Z,8.69
2019-04-06T06:23:46.645Z,8.60
2019-04-06T06:24:46.641Z,8.89
2019-04-06T06:25:46.628Z,8.89
2019-04-06T06:26:46.669Z,8.10
2019-04-06T06:27:46.610Z,8.60
2019-04-06T06:28:46.595Z,8.69
2019-04-06T06:29:46.612Z,8.89
2019-04-06T06:30:46.578Z,9.00
2019-04-06T06:31:46.566Z,8.89
2019-04-06T06:32:46.664Z,9.50
2019-04-06T06:33:46.547Z,8.30
2019-04-06T06:34:46.538Z,8.50
2019-04-06T06:35:46.523Z,8.60
2019-04-06T06:36:46.515Z,8.19
2019-04-06T06:37:46.507Z,8.10
2019-04-06T06:38:46.641Z,8.19
2019-04-06T06:39:46.498Z,7.50
2019-04-06T06:40:46.630Z,7.59
2019-04-06T06:41:46.460Z,8.19
2019-04-06T06:42:46.453Z,8.80
2019-04-06T06:43:46.446Z,7.69
2019-04-06T06:44:46.756Z,7.59
2019-04-06T06:45:46.429Z,7.90
2019-04-06T06:46:46.408Z,7.69
2019-04-06T06:47:46.524Z,7.69
2019-04-06T06:48:46.391Z,8.30
2019-04-06T06:49:46.498Z,8.00
2019-04-06T06:50:46.469Z,8.39
2019-04-06T06:51:46.355Z,8.19
2019-04-06T06:52:46.343Z,9.19
2019-04-06T06:53:46.333Z,9.19
2019-04-06T06:54:46.385Z,8.80
2019-04-06T06:55:46.314Z,8.39
2019-04-06T06:56:46.687Z,8.30
2019-04-06T06:57:46.297Z,8.50
2019-04-06T06:58:46.281Z,8.89
2019-04-06T06:59:46.274Z,9.39
2019-04-06T07:00:46.268Z,9.19
2019-04-06T07:01:46.257Z,9.10
2019-04-06T07:02:46.318Z,9.30
2019-04-06T07:03:46.374Z,9.89
2019-04-06T07:04:46.221Z,9.19
2019-04-06T07:05:46.208Z,10.50
2019-04-06T07:06:46.207Z,11.60
2019-04-06T07:07:46.331Z,10.80
2019-04-06T07:08:46.229Z,12.19
2019-04-06T07:09:46.174Z,12.39
2019-04-06T07:10:46.162Z,10.69
2019-04-06T07:11:46.155Z,10.39
2019-04-06T07:12:46.134Z,10.69
2019-04-06T07:13:46.130Z,9.60
2019-04-06T07:14:46.333Z,8.60
2019-04-06T07:15:46.107Z,8.30
2019-04-06T07:16:46.131Z,8.10
2019-04-06T07:17:46.087Z,8.19
2019-04-06T07:18:46.161Z,7.19
2019-04-06T07:19:46.067Z,7.00
2019-04-06T07:20:46.155Z,7.30
2019-04-06T07:21:46.039Z,7.00
2019-04-06T07:22:46.035Z,5.90
2019-04-06T07:23:46.234Z,5.69
2019-04-06T07:24:46.009Z,5.69
2019-04-06T07:25:56.638Z,6.09
2019-04-06T07:27:11.075Z,6.30
2019-04-06T07:28:11.293Z,6.09
2019-04-06T07:29:10.889Z,7.09
2019-04-06T07:30:11.078Z,6.00
2019-04-06T07:31:10.873Z,6.59
2019-04-06T07:32:11.056Z,6.30
2019-04-06T07:33:11.103Z,6.59
2019-04-06T07:34:10.837Z,6.69
2019-04-06T07:35:10.838Z,6.30
2019-04-06T07:36:10.820Z,6.19
2019-04-06T07:37:11.127Z,6.40
2019-04-06T07:38:10.860Z,6.59
2019-04-06T07:39:10.785Z,13.50
2019-04-06T07:40:10.826Z,6.80
2019-04-06T07:41:10.764Z,6.59
2019-04-06T07:42:10.944Z,6.30
2019-04-06T07:43:10.741Z,5.69
2019-04-06T07:44:11.008Z,6.30
2019-04-06T07:45:10.730Z,5.90
2019-04-06T07:46:10.717Z,6.30
2019-04-06T07:47:10.704Z,6.00
2019-04-06T07:48:10.693Z,6.19
2019-04-06T07:49:10.713Z,5.90
2019-04-06T07:50:11.059Z,6.09
2019-04-06T07:51:10.676Z,5.80
2019-04-06T07:52:10.661Z,6.59
2019-04-06T07:53:10.829Z,6.40
2019-04-06T07:54:10.639Z,6.30
2019-04-06T07:55:10.612Z,6.19
2019-04-06T07:56:10.768Z,5.90
2019-04-06T07:57:10.598Z,6.09
2019-04-06T07:58:10.628Z,6.19
2019-04-06T07:59:10.582Z,5.80
2019-04-06T08:00:10.568Z,6.09
2019-04-06T08:01:10.558Z,6.09
2019-04-06T08:02:10.834Z,6.40
2019-04-06T08:03:10.555Z,6.00
2019-04-06T08:04:10.525Z,6.30
2019-04-06T08:05:10.521Z,7.09
2019-04-06T08:06:10.507Z,6.50
2019-04-06T08:07:10.503Z,6.19
2019-04-06T08:08:10.740Z,6.69
2019-04-06T08:09:10.477Z,6.00
2019-04-06T08:10:10.698Z,6.50
2019-04-06T08:11:10.458Z,6.19
2019-04-06T08:12:10.446Z,6.19
2019-04-06T08:13:10.459Z,6.00
2019-04-06T08:14:10.540Z,6.30
2019-04-06T08:15:10.416Z,5.50
2019-04-06T08:16:10.404Z,5.59
2019-04-06T08:17:10.393Z,6.09
2019-04-06T08:18:10.382Z,6.00
2019-04-06T08:19:10.421Z,6.00
2019-04-06T08:20:10.376Z,5.90
2019-04-06T08:21:10.426Z,5.50
2019-04-06T08:22:10.345Z,4.90
2019-04-06T08:23:10.330Z,5.69
2019-04-06T08:24:10.325Z,5.50
2019-04-06T08:25:10.364Z,6.00
2019-04-06T08:26:10.760Z,6.09
2019-04-06T08:27:10.292Z,6.00
2019-04-06T08:28:10.467Z,5.40
2019-04-06T08:29:10.273Z,5.69
2019-04-06T08:30:10.262Z,6.30
2019-04-06T08:31:10.689Z,6.50
2019-04-06T08:32:10.244Z,5.19
2019-04-06T08:33:10.229Z,6.40
2019-04-06T08:34:10.221Z,6.19
2019-04-06T08:35:10.206Z,6.00
2019-04-06T08:36:10.197Z,5.69
2019-04-06T08:37:10.309Z,6.00
2019-04-06T08:38:10.175Z,5.59
2019-04-06T08:39:10.395Z,5.50
2019-04-06T08:40:10.158Z,7.09
2019-04-06T08:41:10.144Z,7.50
2019-04-06T08:42:10.134Z,7.09
2019-04-06T08:43:10.181Z,6.09
2019-04-06T08:44:10.118Z,6.09
2019-04-06T08:45:10.106Z,5.80
2019-04-06T08:46:10.097Z,6.40
2019-04-06T08:47:10.090Z,7.00
2019-04-06T08:48:10.073Z,6.00
2019-04-06T08:49:11.018Z,5.90
2019-04-06T08:50:10.051Z,5.09
2019-04-06T08:51:10.115Z,5.19
2019-04-06T08:52:11.595Z,6.59
2019-04-06T08:53:10.027Z,6.30
2019-04-06T08:54:10.012Z,6.09
2019-04-06T08:55:10.053Z,6.09
2019-04-06T08:56:09.993Z,5.90
2019-04-06T08:57:09.979Z,5.40
2019-04-06T08:58:09.969Z,5.50
2019-04-06T08:59:12.106Z,4.90
2019-04-06T09:00:10.009Z,5.40
2019-04-06T09:01:10.043Z,5.50
2019-04-06T09:02:09.927Z,5.90
2019-04-06T09:03:09.923Z,5.09
2019-04-06T09:04:09.930Z,5.80
2019-04-06T09:05:09.898Z,5.40
2019-04-06T09:06:09.897Z,5.50
2019-04-06T09:07:10.129Z,6.00
2019-04-06T09:08:09.870Z,6.40
2019-04-06T09:09:09.861Z,8.89
2019-04-06T09:10:09.850Z,9.39
2019-04-06T09:11:09.844Z,7.50
2019-04-06T09:12:09.828Z,6.09
2019-04-06T09:13:09.867Z,5.30
2019-04-06T09:14:09.807Z,6.00
2019-04-06T09:15:10.054Z,5.30
2019-04-06T09:16:09.785Z,5.30
2019-04-06T09:17:09.774Z,5.30
2019-04-06T09:18:09.768Z,5.59
2019-04-06T09:19:09.803Z,6.09
2019-04-06T09:20:09.897Z,5.50
2019-04-06T09:21:09.734Z,5.69
2019-04-06T09:22:09.726Z,6.19
2019-04-06T09:23:09.737Z,5.50
2019-04-06T09:24:09.706Z,5.40
2019-04-06T09:25:10.247Z,6.19
2019-04-06T09:26:09.686Z,5.19
2019-04-06T09:27:09.905Z,5.59
2019-04-06T09:28:09.661Z,6.30
2019-04-06T09:29:09.752Z,5.80
2019-04-06T09:30:09.642Z,5.80
2019-04-06T09:31:09.716Z,5.59
2019-04-06T09:34:34.203Z,6.00
2019-04-06T09:34:38.726Z,5.90
2019-04-06T09:35:38.922Z,6.09
2019-04-06T09:36:38.752Z,5.59
2019-04-06T09:37:38.991Z,6.09
2019-04-06T09:38:38.716Z,6.00
2019-04-06T09:39:38.670Z,6.30
2019-04-06T09:40:38.659Z,6.50
2019-04-06T09:41:38.653Z,6.00
2019-04-06T09:42:38.785Z,5.19
2019-04-06T09:43:38.705Z,6.19
2019-04-06T09:44:38.610Z,5.80
2019-04-06T09:45:41.284Z,5.80
2019-04-06T09:46:38.588Z,5.40
2019-04-06T09:47:38.579Z,5.40
2019-04-06T09:48:38.616Z,5.69
2019-04-06T09:49:38.559Z,13.19
2019-04-06T09:50:38.549Z,5.90
2019-04-06T09:51:38.532Z,5.50
2019-04-06T09:52:38.525Z,5.30
2019-04-06T09:53:38.514Z,5.09
2019-04-06T09:54:38.772Z,5.69
2019-04-06T09:55:38.491Z,5.19
2019-04-06T09:56:38.486Z,5.59
2019-04-06T09:57:38.473Z,5.80
2019-04-06T09:58:38.469Z,5.59
2019-04-06T09:59:38.712Z,5.80
2019-04-06T10:00:38.843Z,5.59
2019-04-06T10:01:39.267Z,6.00
2019-04-06T10:02:38.421Z,5.69
2019-04-06T10:03:38.665Z,5.30
2019-04-06T10:04:38.693Z,5.69
2019-04-06T10:05:38.629Z,5.69
2019-04-06T10:06:38.629Z,5.30
2019-04-06T10:07:38.365Z,6.00
2019-04-06T10:08:38.494Z,5.80
2019-04-06T10:09:38.371Z,5.80
2019-04-06T10:10:38.345Z,5.80
2019-04-06T10:11:38.328Z,5.69
2019-04-06T10:12:38.365Z,5.80
2019-04-06T10:13:38.306Z,5.90
2019-04-06T10:14:38.300Z,6.09
2019-04-06T10:15:38.291Z,6.59
2019-04-06T10:16:38.275Z,5.90
2019-04-06T10:17:38.264Z,5.80
2019-04-06T10:18:38.404Z,6.00
2019-04-06T10:19:38.245Z,5.69
2019-04-06T10:20:38.329Z,5.80
2019-04-06T10:21:38.225Z,5.80
2019-04-06T10:22:38.548Z,5.90
2019-04-06T10:23:38.202Z,5.59
2019-04-06T10:24:38.369Z,5.90
2019-04-06T10:25:38.481Z,6.09
2019-04-06T10:26:38.165Z,5.59
2019-04-06T10:27:38.164Z,5.90
2019-04-06T10:28:38.165Z,5.69
2019-04-06T10:29:48.254Z,5.69
2019-04-06T10:30:39.357Z,5.69
2019-04-06T10:31:38.134Z,5.80
2019-04-06T10:32:38.123Z,6.40
2019-04-06T10:33:38.109Z,5.80
2019-04-06T10:34:38.156Z,5.50
2019-04-06T10:35:38.088Z,6.00
2019-04-06T10:36:38.285Z,6.09
2019-04-06T10:37:38.151Z,5.90
2019-04-06T10:38:38.564Z,5.50
2019-04-06T10:39:38.047Z,6.00
2019-04-06T10:40:38.311Z,6.30
2019-04-06T10:41:38.027Z,5.50
2019-04-06T10:42:38.121Z,5.90
2019-04-06T10:43:38.082Z,5.90
2019-04-06T10:44:37.999Z,6.59
2019-04-06T10:45:37.992Z,6.09
2019-04-06T10:46:37.971Z,5.90
2019-04-06T10:47:37.963Z,5.80
2019-04-06T10:48:38.051Z,6.50
2019-04-06T10:49:37.942Z,6.09
2019-04-06T10:50:37.930Z,5.90
2019-04-06T10:51:40.557Z,5.00
2019-04-06T10:52:37.910Z,5.19
2019-04-06T10:53:37.902Z,5.69
2019-04-06T10:54:38.194Z,5.59
2019-04-06T10:55:38.186Z,6.00
2019-04-06T10:56:37.872Z,6.40
2019-04-06T10:57:37.859Z,6.30
2019-04-06T10:58:37.987Z,6.19
2019-04-06T10:59:37.838Z,6.40
2019-04-06T11:00:37.926Z,6.69
2019-04-06T11:01:37.815Z,6.80
2019-04-06T11:02:37.833Z,7.30
2019-04-06T11:03:37.791Z,7.40
2019-04-06T11:04:37.782Z,6.50
2019-04-06T11:05:37.773Z,6.59
2019-04-06T11:06:37.865Z,6.59
2019-04-06T11:07:38.238Z,6.50
2019-04-06T11:08:37.738Z,6.30
2019-04-06T11:09:37.722Z,6.30
2019-04-06T11:10:37.711Z,6.50
2019-04-06T11:11:37.853Z,6.50
2019-04-06T11:12:37.917Z,6.90
2019-04-06T11:13:37.689Z,6.59
2019-04-06T11:14:37.673Z,6.80
2019-04-06T11:15:37.661Z,6.80
2019-04-06T11:16:37.648Z,6.80
2019-04-06T11:17:37.739Z,6.59
2019-04-06T11:18:37.630Z,6.59
2019-04-06T11:19:37.612Z,6.80
2019-04-06T11:20:37.606Z,6.90
2019-04-06T11:21:37.593Z,6.90
2019-04-06T11:22:37.584Z,6.40
2019-04-06T11:23:37.674Z,6.80
2019-04-06T11:24:37.566Z,6.90
2019-04-06T11:25:37.553Z,6.80
2019-04-06T11:26:37.543Z,6.90
2019-04-06T11:27:37.671Z,7.80
2019-04-06T11:28:37.520Z,7.19
2019-04-06T11:29:37.604Z,7.00
2019-04-06T11:30:37.496Z,6.80
2019-04-06T11:31:37.492Z,7.40
2019-04-06T11:32:37.650Z,7.40
2019-04-06T11:33:37.622Z,7.00
2019-04-06T11:34:37.602Z,7.19
2019-04-06T11:35:37.442Z,6.69
2019-04-06T11:36:37.431Z,7.00
2019-04-06T11:37:37.416Z,6.59
2019-04-06T11:38:37.407Z,6.69
2019-04-06T11:39:37.394Z,6.80
2019-04-06T11:40:37.535Z,6.40
2019-04-06T11:41:37.376Z,7.00
2019-04-06T11:42:37.362Z,6.69
2019-04-06T11:43:37.353Z,6.59
2019-04-06T11:44:37.338Z,7.00
2019-04-06T11:45:37.328Z,6.50
2019-04-06T11:46:37.421Z,5.90
2019-04-06T11:47:37.307Z,6.50
2019-04-06T11:48:37.461Z,6.40
2019-04-06T11:49:37.287Z,6.59
2019-04-06T11:50:37.275Z,6.30
2019-04-06T11:51:37.591Z,7.00
2019-04-06T11:52:37.454Z,6.09
2019-04-06T11:53:37.395Z,6.80
2019-04-06T11:54:37.523Z,6.40
2019-04-06T11:55:37.257Z,6.30
2019-04-06T11:56:37.211Z,6.19
2019-04-06T11:57:37.198Z,7.90
2019-04-06T11:58:37.289Z,6.80
2019-04-06T11:59:37.175Z,7.19
2019-04-06T12:00:37.167Z,6.59
2019-04-06T12:01:37.155Z,7.00
2019-04-06T12:02:37.143Z,7.19
2019-04-06T12:03:37.132Z,6.90
2019-04-06T12:04:37.194Z,7.09
2019-04-06T12:05:37.109Z,7.00
2019-04-06T12:06:37.197Z,7.30
2019-04-06T12:07:37.347Z,5.80
2019-04-06T12:08:37.078Z,6.59
2019-04-06T12:09:37.078Z,7.00
2019-04-06T12:10:37.250Z,6.50
2019-04-06T12:11:37.044Z,7.00
2019-04-06T12:12:37.329Z,6.90
2019-04-06T12:13:37.023Z,6.30
2019-04-06T12:14:37.010Z,6.50
2019-04-06T12:15:37.001Z,6.90
2019-04-06T12:16:37.040Z,7.40
2019-04-06T12:17:36.979Z,6.90
2019-04-06T12:18:37.236Z,6.40
2019-04-06T12:19:36.957Z,6.19
2019-04-06T12:20:36.946Z,6.90
2019-04-06T12:21:36.983Z,7.19
2019-04-06T12:22:36.972Z,7.40
2019-04-06T12:23:37.299Z,7.00
2019-04-06T12:24:36.901Z,6.69
2019-04-06T12:25:37.054Z,6.90
2019-04-06T12:26:36.876Z,7.19
2019-04-06T12:27:36.865Z,11.89
2019-04-06T12:28:37.063Z,14.50
2019-04-06T12:29:36.847Z,13.30
2019-04-06T12:30:39.072Z,8.80
2019-04-06T12:31:36.822Z,7.59
2019-04-06T12:32:36.812Z,7.50
2019-04-06T12:33:36.799Z,8.00
2019-04-06T12:34:37.132Z,7.90
2019-04-06T12:35:36.782Z,7.50
2019-04-06T12:36:36.769Z,8.00
2019-04-06T12:37:36.754Z,7.69
2019-04-06T12:38:37.101Z,7.50
2019-04-06T12:39:36.735Z,7.80
2019-04-06T12:40:36.835Z,7.50
2019-04-06T12:41:36.715Z,7.40
2019-04-06T12:42:36.704Z,7.59
2019-04-06T12:43:36.692Z,7.59
2019-04-06T12:44:36.836Z,7.80
2019-04-06T12:45:36.959Z,8.00
2019-04-06T12:46:37.647Z,7.30
2019-04-06T12:47:36.766Z,7.19
2019-04-06T12:48:36.782Z,7.40
2019-04-06T12:49:36.624Z,7.69
2019-04-06T12:50:36.613Z,7.80
2019-04-06T12:51:36.604Z,8.30
2019-04-06T12:52:37.027Z,8.00
2019-04-06T12:53:36.583Z,7.59
2019-04-06T12:54:36.577Z,7.69
2019-04-06T12:55:36.565Z,8.30
2019-04-06T12:56:36.776Z,7.50
2019-04-06T12:57:36.533Z,7.50
2019-04-06T12:58:36.627Z,8.30
2019-04-06T12:59:36.566Z,8.00
2019-04-06T13:00:48.396Z,7.40
2019-04-06T13:02:01.428Z,8.80
2019-04-06T13:03:01.302Z,8.30
2019-04-06T13:04:01.483Z,7.50
2019-04-06T13:05:01.275Z,7.69
2019-04-06T13:06:01.267Z,8.19
2019-04-06T13:07:01.347Z,7.90
2019-04-06T13:08:01.244Z,8.00
2019-04-06T13:09:01.234Z,7.80
2019-04-06T13:10:01.266Z,8.39
2019-04-06T13:11:01.218Z,10.39
2019-04-06T13:12:01.195Z,17.00
2019-04-06T13:13:01.188Z,8.60
2019-04-06T13:14:01.175Z,8.10
2019-04-06T13:15:01.416Z,8.30
2019-04-06T13:16:01.518Z,8.39
2019-04-06T13:17:01.143Z,7.69
2019-04-06T13:18:01.275Z,8.30
2019-04-06T13:19:01.121Z,7.90
2019-04-06T13:20:01.222Z,7.69
2019-04-06T13:21:01.111Z,7.90
2019-04-06T13:22:01.239Z,9.00
2019-04-06T13:23:01.078Z,7.80
2019-04-06T13:24:01.070Z,8.00
2019-04-06T13:25:01.057Z,11.19
2019-04-06T13:26:01.044Z,11.60
2019-04-06T13:27:01.034Z,13.50
2019-04-06T13:28:01.076Z,12.50
2019-04-06T13:29:01.205Z,8.10
2019-04-06T13:30:01.002Z,7.69
2019-04-06T13:31:03.575Z,8.10
2019-04-06T13:32:00.978Z,7.19
2019-04-06T13:33:00.989Z,23.60
2019-04-06T13:34:01.015Z,10.10
2019-04-06T13:35:01.046Z,9.69
2019-04-06T13:36:01.292Z,12.30
2019-04-06T13:37:00.966Z,10.00
2019-04-06T13:38:00.916Z,7.30
2019-04-06T13:39:00.905Z,7.30
2019-04-06T13:40:01.104Z,7.40
2019-04-06T13:41:00.888Z,7.19
2019-04-06T13:42:00.875Z,8.00
2019-04-06T13:43:00.864Z,7.30
2019-04-06T13:44:00.852Z,7.69
2019-04-06T13:45:00.845Z,7.90